createdAt,value
2023-03-19T00:02:17.642Z,6.80
2023-03-19T00:04:46.933Z,6.60
2023-03-19T00:07:15.829Z,7.80
2023-03-19T00:09:48.329Z,8.20
2023-03-19T00:12:17.019Z,8.13
2023-03-19T00:14:45.727Z,8.60
2023-03-19T00:17:14.407Z,8.37
2023-03-19T00:19:43.040Z,7.60
2023-03-19T00:22:11.940Z,7.70
2023-03-19T00:24:40.280Z,8.37
2023-03-19T00:27:10.062Z,7.80
2023-03-19T00:29:38.568Z,6.97
2023-03-19T00:32:07.381Z,8.57
2023-03-19T00:34:35.884Z,20.70
2023-03-19T00:37:04.420Z,15.63
2023-03-19T00:39:32.959Z,10.40
2023-03-19T00:42:01.538Z,8.13
2023-03-19T00:44:31.354Z,8.27
2023-03-19T00:46:59.998Z,9.33
2023-03-19T00:49:28.753Z,7.73
2023-03-19T00:51:57.115Z,7.83
2023-03-19T00:54:25.604Z,8.40
2023-03-19T00:56:53.955Z,7.67
2023-03-19T00:59:25.431Z,8.10
2023-03-19T01:01:55.383Z,7.90
2023-03-19T01:04:24.160Z,8.23
2023-03-19T01:06:52.604Z,8.70
2023-03-19T01:09:21.284Z,9.23
2023-03-19T01:11:49.647Z,8.83
2023-03-19T01:14:18.101Z,9.93
2023-03-19T01:16:46.576Z,10.13
2023-03-19T01:19:16.408Z,9.37
2023-03-19T01:21:46.465Z,9.30
2023-03-19T01:24:17.870Z,9.03
2023-03-19T01:26:48.758Z,10.27
2023-03-19T01:29:24.455Z,10.70
2023-03-19T01:31:53.143Z,10.60
2023-03-19T01:34:41.445Z,10.63
2023-03-19T01:37:12.706Z,10.57
2023-03-19T01:39:42.209Z,10.23
2023-03-19T01:42:14.280Z,10.00
2023-03-19T01:45:04.054Z,10.27
2023-03-19T01:47:34.369Z,10.43
2023-03-19T01:50:29.227Z,10.10
2023-03-19T01:53:21.589Z,10.37
2023-03-19T01:56:01.215Z,10.17
2023-03-19T01:58:39.471Z,10.00
2023-03-19T02:01:29.439Z,9.07
2023-03-19T02:03:58.313Z,9.80
2023-03-19T02:06:31.722Z,9.50
2023-03-19T02:09:01.785Z,8.63
2023-03-19T02:11:30.355Z,8.93
2023-03-19T02:13:58.851Z,9.03
2023-03-19T02:16:27.676Z,8.80
2023-03-19T02:18:58.057Z,9.50
2023-03-19T02:21:26.574Z,7.87
2023-03-19T02:24:00.979Z,8.40
2023-03-19T02:26:50.626Z,8.23
2023-03-19T02:29:19.526Z,9.03
2023-03-19T02:31:48.809Z,8.83
2023-03-19T02:34:36.895Z,8.23
2023-03-19T02:37:07.903Z,9.73
2023-03-19T02:39:38.872Z,9.47
2023-03-19T02:42:09.491Z,10.17
2023-03-19T02:44:37.965Z,9.80
2023-03-19T02:47:07.104Z,9.67
2023-03-19T02:49:36.120Z,10.27
2023-03-19T02:52:04.979Z,10.17
2023-03-19T02:54:33.406Z,9.73
2023-03-19T02:57:01.869Z,10.07
2023-03-19T02:59:31.902Z,10.70
2023-03-19T03:02:00.581Z,10.33
2023-03-19T03:04:29.278Z,10.90
2023-03-19T03:06:57.760Z,10.17
2023-03-19T03:09:27.227Z,11.07
2023-03-19T03:11:55.635Z,10.90
2023-03-19T03:14:24.749Z,9.50
2023-03-19T03:16:54.596Z,10.03
2023-03-19T03:19:23.671Z,10.30
2023-03-19T03:21:52.228Z,10.83
2023-03-19T03:24:20.600Z,10.27
2023-03-19T03:26:49.037Z,10.00
2023-03-19T03:29:18.183Z,10.27
2023-03-19T03:31:46.938Z,9.27
2023-03-19T03:34:16.716Z,9.40
2023-03-19T03:36:46.875Z,9.87
2023-03-19T03:39:15.343Z,9.70
2023-03-19T03:41:43.985Z,9.80
2023-03-19T03:44:12.524Z,9.73
2023-03-19T03:46:43.419Z,9.73
2023-03-19T03:49:12.447Z,11.67
2023-03-19T03:51:43.305Z,11.50
2023-03-19T03:54:12.000Z,10.57
2023-03-19T03:56:40.644Z,10.10
2023-03-19T03:59:09.523Z,10.17
2023-03-19T04:01:37.948Z,9.17
2023-03-19T04:04:06.426Z,9.50
2023-03-19T04:06:34.969Z,8.63
2023-03-19T04:09:17.138Z,9.47
2023-03-19T04:11:45.607Z,9.13
2023-03-19T04:14:14.082Z,9.43
2023-03-19T04:16:44.148Z,8.07
2023-03-19T04:19:12.726Z,8.17
2023-03-19T04:21:41.282Z,7.10
2023-03-19T04:24:11.468Z,7.20
2023-03-19T04:26:41.706Z,6.60
2023-03-19T04:29:10.206Z,6.83
2023-03-19T04:31:39.258Z,6.97
2023-03-19T04:34:07.973Z,6.93
2023-03-19T04:36:36.771Z,6.87
2023-03-19T04:39:05.763Z,7.70
2023-03-19T04:41:34.346Z,6.97
2023-03-19T04:44:22.780Z,7.10
2023-03-19T04:46:51.520Z,7.53
2023-03-19T04:49:22.002Z,8.60
2023-03-19T04:51:51.621Z,7.30
2023-03-19T04:54:20.530Z,7.20
2023-03-19T04:56:49.666Z,7.60
2023-03-19T04:59:18.593Z,8.47
2023-03-19T05:01:48.729Z,8.37
2023-03-19T05:04:23.211Z,7.37
2023-03-19T05:06:52.839Z,8.77
2023-03-19T05:09:21.481Z,7.97
2023-03-19T05:11:49.955Z,7.70
2023-03-19T05:14:21.514Z,8.37
2023-03-19T05:17:11.553Z,8.07
2023-03-19T05:20:12.896Z,7.73
2023-03-19T05:22:47.649Z,8.67
2023-03-19T05:25:17.977Z,7.60
2023-03-19T05:27:47.273Z,8.00
2023-03-19T05:30:20.585Z,8.03
2023-03-19T05:33:10.560Z,7.97
2023-03-19T05:35:43.050Z,7.13
2023-03-19T05:38:21.329Z,6.53
2023-03-19T05:40:56.782Z,6.77
2023-03-19T05:43:37.627Z,7.20
2023-03-19T05:46:09.529Z,6.70
2023-03-19T05:48:39.957Z,6.50
2023-03-19T05:51:09.801Z,7.23
2023-03-19T05:53:42.512Z,6.73
2023-03-19T05:56:30.934Z,6.63
2023-03-19T05:59:19.578Z,7.03
2023-03-19T06:01:58.246Z,6.67
2023-03-19T06:04:28.233Z,6.90
2023-03-19T06:06:56.855Z,6.60
2023-03-19T06:09:25.769Z,7.43
2023-03-19T06:11:57.566Z,7.00
2023-03-19T06:14:44.425Z,6.90
2023-03-19T06:17:31.485Z,6.70
2023-03-19T06:20:06.915Z,6.57
2023-03-19T06:22:35.342Z,6.37
2023-03-19T06:25:03.977Z,6.37
2023-03-19T06:27:36.169Z,6.50
2023-03-19T06:30:18.823Z,6.27
2023-03-19T06:32:47.300Z,6.13
2023-03-19T06:35:17.712Z,6.30
2023-03-19T06:37:49.004Z,6.23
2023-03-19T06:40:17.600Z,6.17
2023-03-19T06:42:48.261Z,6.53
2023-03-19T06:45:19.340Z,6.80
2023-03-19T06:47:48.206Z,7.17
2023-03-19T06:50:18.280Z,6.80
2023-03-19T06:52:46.691Z,7.20
2023-03-19T06:55:15.152Z,6.30
2023-03-19T06:57:43.499Z,6.00
2023-03-19T07:00:13.130Z,6.63
2023-03-19T07:02:41.778Z,6.00
2023-03-19T07:05:10.490Z,5.70
2023-03-19T07:07:40.239Z,5.83
2023-03-19T07:10:08.959Z,5.50
2023-03-19T07:12:37.356Z,5.37
2023-03-19T07:15:06.680Z,6.37
2023-03-19T07:17:35.118Z,6.20
2023-03-19T07:20:03.570Z,5.30
2023-03-19T07:22:32.022Z,4.90
2023-03-19T07:25:01.732Z,5.27
2023-03-19T07:27:30.369Z,4.80
2023-03-19T07:29:58.776Z,6.20
2023-03-19T07:32:29.429Z,4.97
2023-03-19T07:34:57.821Z,5.60
2023-03-19T07:37:26.245Z,5.47
2023-03-19T07:39:54.634Z,5.10
2023-03-19T07:42:24.633Z,5.77
2023-03-19T07:44:53.095Z,5.93
2023-03-19T07:47:29.087Z,5.70
2023-03-19T07:49:58.073Z,5.33
2023-03-19T07:52:26.575Z,5.30
2023-03-19T07:54:55.064Z,5.20
2023-03-19T07:57:25.449Z,4.93
2023-03-19T07:59:54.191Z,5.87
2023-03-19T08:02:23.700Z,6.07
2023-03-19T08:04:52.337Z,5.93
2023-03-19T08:07:20.730Z,6.10
2023-03-19T08:09:49.230Z,6.70
2023-03-19T08:12:17.686Z,6.40
2023-03-19T08:14:47.391Z,5.80
2023-03-19T08:17:15.968Z,6.00
2023-03-19T08:19:44.663Z,5.80
2023-03-19T08:22:13.100Z,5.50
2023-03-19T08:24:42.111Z,6.53
2023-03-19T08:27:11.169Z,5.10
2023-03-19T08:29:39.588Z,5.77
2023-03-19T08:32:11.356Z,6.17
2023-03-19T08:34:39.800Z,5.80
2023-03-19T08:37:08.154Z,5.67
2023-03-19T08:39:36.547Z,6.20
2023-03-19T08:42:04.990Z,6.20
2023-03-19T08:44:33.679Z,6.57
2023-03-19T08:47:02.096Z,6.00
2023-03-19T08:49:31.853Z,5.80
2023-03-19T08:52:00.264Z,5.00
2023-03-19T08:54:28.639Z,5.40
2023-03-19T08:56:57.030Z,5.93
2023-03-19T08:59:25.420Z,5.00
2023-03-19T09:01:54.236Z,4.43
2023-03-19T09:04:23.188Z,4.80
2023-03-19T09:06:53.146Z,5.50
2023-03-19T09:09:22.202Z,5.00
2023-03-19T09:11:50.899Z,5.80
2023-03-19T09:14:20.663Z,5.00
2023-03-19T09:16:49.113Z,4.50
2023-03-19T09:19:17.751Z,4.53
2023-03-19T09:21:46.399Z,5.20
2023-03-19T09:24:16.324Z,5.60
2023-03-19T09:26:45.008Z,4.57
2023-03-19T09:29:13.432Z,4.97
2023-03-19T09:31:42.066Z,5.60
2023-03-19T09:34:10.743Z,5.50
2023-03-19T09:36:39.723Z,4.43
2023-03-19T09:39:08.785Z,4.37
2023-03-19T09:41:42.688Z,4.57
2023-03-19T09:44:14.617Z,4.20
2023-03-19T09:46:46.320Z,5.00
2023-03-19T09:49:18.513Z,4.53
2023-03-19T09:51:49.182Z,4.47
2023-03-19T09:54:24.409Z,3.80
2023-03-19T09:56:54.174Z,4.57
2023-03-19T09:59:23.370Z,4.60
2023-03-19T10:01:54.902Z,3.80
2023-03-19T10:04:44.478Z,4.20
2023-03-19T10:07:17.332Z,3.50
2023-03-19T10:09:50.952Z,4.03
2023-03-19T10:12:27.289Z,3.57
2023-03-19T10:15:04.503Z,3.63
2023-03-19T10:17:34.684Z,3.87
2023-03-19T10:20:06.397Z,3.33
2023-03-19T10:22:37.836Z,3.17
2023-03-19T10:25:07.283Z,2.95
2023-03-19T10:27:37.329Z,2.80
2023-03-19T10:30:13.448Z,2.97
2023-03-19T10:32:43.760Z,2.40
2023-03-19T10:35:18.485Z,2.60
2023-03-19T10:37:47.091Z,2.83
2023-03-19T10:40:19.470Z,3.00
2023-03-19T10:42:55.332Z,2.50
2023-03-19T10:45:27.351Z,3.17
2023-03-19T10:47:56.895Z,2.90
2023-03-19T10:50:29.502Z,2.70
2023-03-19T10:53:04.051Z,2.90
2023-03-19T10:55:33.065Z,2.90
2023-03-19T10:58:06.184Z,2.60
2023-03-19T11:00:35.517Z,3.13
2023-03-19T11:03:05.477Z,3.20
2023-03-19T11:05:35.049Z,2.93
2023-03-19T11:08:04.990Z,3.13
2023-03-19T11:10:34.529Z,3.03
2023-03-19T11:13:07.282Z,2.90
2023-03-19T11:15:37.100Z,2.97
2023-03-19T11:18:09.911Z,2.60
2023-03-19T11:20:39.726Z,3.00
2023-03-19T11:23:12.141Z,2.87
2023-03-19T11:25:42.093Z,2.63
2023-03-19T11:28:14.120Z,2.93
2023-03-19T11:30:48.403Z,3.40
2023-03-19T11:33:22.355Z,2.97
2023-03-19T11:35:53.246Z,3.20
2023-03-19T11:38:26.773Z,3.50
2023-03-19T11:40:58.902Z,3.13
2023-03-19T11:43:36.782Z,3.27
2023-03-19T11:46:10.233Z,2.93
2023-03-19T11:48:46.832Z,3.37
2023-03-19T11:51:20.210Z,3.17
2023-03-19T11:53:54.993Z,2.50
2023-03-19T11:56:25.656Z,2.77
2023-03-19T11:59:07.775Z,2.60
2023-03-19T12:01:44.146Z,2.53
2023-03-19T12:04:19.735Z,3.60
2023-03-19T12:06:51.471Z,3.10
2023-03-19T12:09:24.858Z,2.90
2023-03-19T12:11:55.351Z,2.50
2023-03-19T12:14:33.360Z,2.30
2023-03-19T12:17:13.172Z,2.60
2023-03-19T12:19:50.570Z,2.50
2023-03-19T12:22:24.417Z,2.50
2023-03-19T12:25:03.562Z,2.70
2023-03-19T12:27:35.540Z,2.90
2023-03-19T12:30:14.284Z,2.50
2023-03-19T12:32:54.207Z,2.40
2023-03-19T12:35:25.348Z,2.40
2023-03-19T12:37:57.285Z,2.53
2023-03-19T12:40:29.301Z,2.92
2023-03-19T12:42:59.429Z,3.10
2023-03-19T12:45:31.823Z,2.83
2023-03-19T12:48:04.050Z,2.58
2023-03-19T12:50:34.017Z,2.70
2023-03-19T12:53:04.222Z,2.90
2023-03-19T12:55:38.235Z,3.22
2023-03-19T12:58:11.440Z,3.10
2023-03-19T13:00:45.607Z,3.30
2023-03-19T13:03:18.555Z,3.40
2023-03-19T13:05:48.957Z,3.40
2023-03-19T13:08:21.087Z,2.90
2023-03-19T13:10:49.793Z,3.07
2023-03-19T13:13:30.499Z,2.93
2023-03-19T13:16:01.967Z,3.58
2023-03-19T13:18:35.027Z,3.60
2023-03-19T13:21:11.129Z,3.80
2023-03-19T13:23:40.362Z,3.60
2023-03-19T13:26:12.744Z,3.60
2023-03-19T13:28:56.609Z,3.17
2023-03-19T13:31:28.327Z,3.40
2023-03-19T13:34:04.220Z,3.43
2023-03-19T13:36:37.266Z,3.80
2023-03-19T13:39:06.573Z,3.33
2023-03-19T13:41:55.581Z,3.58
2023-03-19T13:44:31.011Z,3.70
2023-03-19T13:47:02.542Z,3.60
2023-03-19T13:49:33.792Z,3.20
2023-03-19T13:52:04.538Z,3.27
2023-03-19T13:54:34.473Z,3.50
2023-03-19T13:57:08.838Z,3.72
2023-03-19T13:59:37.863Z,4.00
2023-03-19T14:02:33.474Z,4.23
2023-03-19T14:05:05.389Z,3.87
2023-03-19T14:07:37.432Z,3.50
2023-03-19T14:10:09.589Z,3.50
2023-03-19T14:12:38.952Z,3.57
2023-03-19T14:15:18.061Z,3.58
2023-03-19T14:17:56.495Z,3.27
2023-03-19T14:20:35.445Z,3.67
2023-03-19T14:23:40.894Z,3.83
2023-03-19T14:26:22.947Z,3.47
2023-03-19T14:28:56.002Z,4.25
2023-03-19T14:31:26.344Z,3.72
2023-03-19T14:34:01.337Z,4.00
2023-03-19T14:36:29.781Z,3.53
2023-03-19T14:38:59.811Z,3.50
2023-03-19T14:41:29.557Z,4.00
2023-03-19T14:44:13.027Z,3.00
2023-03-19T14:46:49.375Z,2.90
2023-03-19T14:49:41.764Z,2.95
2023-03-19T14:52:12.103Z,3.38
2023-03-19T14:54:42.854Z,3.20
2023-03-19T14:57:17.769Z,3.30
2023-03-19T14:59:46.275Z,3.70
2023-03-19T15:02:21.447Z,3.70
2023-03-19T15:04:50.322Z,3.45
2023-03-19T15:07:22.650Z,3.38
2023-03-19T15:09:53.802Z,3.55
2023-03-19T15:12:31.452Z,3.20
2023-03-19T15:15:10.733Z,3.90
2023-03-19T15:17:39.250Z,3.28
2023-03-19T15:20:16.815Z,2.85
2023-03-19T15:22:47.921Z,3.22
2023-03-19T15:25:17.073Z,3.73
2023-03-19T15:27:45.743Z,3.63
2023-03-19T15:30:24.861Z,3.70
2023-03-19T15:33:07.854Z,3.23
2023-03-19T15:35:39.323Z,3.33
2023-03-19T15:38:11.039Z,3.60
2023-03-19T15:40:39.952Z,3.50
2023-03-19T15:43:11.390Z,3.22
2023-03-19T15:45:40.925Z,3.17
2023-03-19T15:48:10.852Z,2.80
2023-03-19T15:50:40.096Z,3.30
2023-03-19T15:53:12.519Z,3.70
2023-03-19T15:55:41.225Z,3.17
2023-03-19T15:58:10.898Z,2.97
2023-03-19T16:00:41.170Z,2.80
2023-03-19T16:03:13.055Z,3.10
2023-03-19T16:05:41.660Z,3.13
2023-03-19T16:08:20.991Z,3.50
2023-03-19T16:10:49.505Z,3.10
2023-03-19T16:13:31.692Z,2.90
2023-03-19T16:16:04.449Z,3.03
2023-03-19T16:18:33.198Z,3.23
2023-03-19T16:21:03.446Z,2.80
2023-03-19T16:23:34.978Z,3.00
2023-03-19T16:26:08.064Z,2.83
2023-03-19T16:28:36.639Z,2.80
2023-03-19T16:31:05.091Z,2.70
2023-03-19T16:33:33.595Z,3.00
2023-03-19T16:36:02.072Z,2.80
2023-03-19T16:38:40.363Z,2.70
2023-03-19T16:41:19.909Z,2.87
2023-03-19T16:43:48.822Z,3.03
2023-03-19T16:46:17.642Z,3.33
2023-03-19T16:48:46.441Z,3.60
2023-03-19T16:51:18.092Z,3.17
2023-03-19T16:53:47.117Z,3.00
2023-03-19T16:56:18.849Z,2.87
2023-03-19T16:58:48.817Z,3.53
2023-03-19T17:01:19.382Z,3.40
2023-03-19T17:03:49.570Z,3.97
2023-03-19T17:06:18.585Z,4.07
2023-03-19T17:08:47.120Z,3.50
2023-03-19T17:11:18.384Z,3.30
2023-03-19T17:13:46.803Z,3.23
2023-03-19T17:16:16.704Z,3.23
2023-03-19T17:18:47.828Z,3.50
2023-03-19T17:21:18.146Z,3.20
2023-03-19T17:23:47.271Z,3.13
2023-03-19T17:26:17.258Z,2.93
2023-03-19T17:28:46.091Z,2.40
2023-03-19T17:31:21.913Z,2.80
2023-03-19T17:33:50.862Z,2.70
2023-03-19T17:36:19.303Z,2.80
2023-03-19T17:38:48.423Z,3.50
2023-03-19T17:41:18.582Z,2.73
2023-03-19T17:43:47.355Z,3.00
2023-03-19T17:46:18.049Z,3.00
2023-03-19T17:48:48.673Z,3.63
2023-03-19T17:51:17.764Z,3.63
2023-03-19T17:53:47.706Z,3.30
2023-03-19T17:56:17.286Z,3.17
2023-03-19T17:58:46.343Z,3.80
2023-03-19T18:01:18.426Z,3.53
2023-03-19T18:03:48.774Z,3.93
2023-03-19T18:06:18.572Z,3.97
2023-03-19T18:08:47.247Z,4.13
2023-03-19T18:11:16.112Z,4.10
2023-03-19T18:13:44.809Z,3.60
2023-03-19T18:16:16.192Z,3.63
2023-03-19T18:18:44.584Z,3.50
2023-03-19T18:21:16.580Z,3.43
2023-03-19T18:23:45.529Z,3.60
2023-03-19T18:26:14.022Z,3.90
2023-03-19T18:28:42.829Z,4.27
2023-03-19T18:31:15.139Z,4.57
2023-03-19T18:33:45.315Z,4.10
2023-03-19T18:36:15.378Z,4.67
2023-03-19T18:38:45.530Z,4.40
2023-03-19T18:41:18.478Z,5.03
2023-03-19T18:43:47.427Z,4.77
2023-03-19T18:46:16.911Z,4.53
2023-03-19T18:48:45.397Z,4.20
2023-03-19T18:51:13.882Z,4.10
2023-03-19T18:53:42.740Z,3.60
2023-03-19T18:56:20.534Z,3.90
2023-03-19T18:58:49.629Z,3.70
2023-03-19T19:01:18.741Z,3.87
2023-03-19T19:03:47.779Z,4.23
2023-03-19T19:06:46.869Z,4.13
2023-03-19T19:09:15.984Z,4.53
2023-03-19T19:11:47.745Z,4.00
2023-03-19T19:14:18.312Z,4.83
2023-03-19T19:16:46.959Z,4.20
2023-03-19T19:19:17.601Z,4.00
2023-03-19T19:21:46.088Z,4.77
2023-03-19T19:24:15.025Z,3.70
2023-03-19T19:26:46.704Z,4.10
2023-03-19T19:29:19.228Z,4.07
2023-03-19T19:31:47.576Z,4.67
2023-03-19T19:34:16.726Z,4.17
2023-03-19T19:36:45.792Z,4.53
2023-03-19T19:39:14.272Z,4.60
2023-03-19T19:41:43.767Z,4.70
2023-03-19T19:44:18.507Z,4.50
2023-03-19T19:46:47.115Z,5.03
2023-03-19T19:49:16.370Z,4.47
2023-03-19T19:51:45.003Z,3.80
2023-03-19T19:54:13.370Z,3.73
2023-03-19T19:56:42.464Z,3.90
2023-03-19T19:59:15.433Z,3.90
2023-03-19T20:01:45.219Z,3.50
2023-03-19T20:04:14.966Z,3.20
2023-03-19T20:06:43.447Z,3.70
2023-03-19T20:09:11.863Z,3.40
2023-03-19T20:11:40.533Z,3.33
2023-03-19T20:14:11.308Z,3.50
2023-03-19T20:16:40.424Z,3.70
2023-03-19T20:19:12.985Z,3.77
2023-03-19T20:21:41.497Z,3.50
2023-03-19T20:24:10.627Z,3.60
2023-03-19T20:26:39.309Z,3.53
2023-03-19T20:29:07.796Z,3.43
2023-03-19T20:31:37.473Z,3.50
2023-03-19T20:34:05.951Z,3.40
2023-03-19T20:36:35.963Z,3.47
2023-03-19T20:39:04.681Z,3.20
2023-03-19T20:41:36.751Z,3.23
2023-03-19T20:44:06.918Z,2.90
2023-03-19T20:46:35.855Z,2.87
2023-03-19T20:49:04.330Z,3.77
2023-03-19T20:51:33.230Z,3.00
2023-03-19T20:54:04.863Z,3.33
2023-03-19T20:56:33.585Z,3.50
2023-03-19T20:59:02.044Z,3.03
2023-03-19T21:01:30.787Z,3.40
2023-03-19T21:03:59.417Z,3.10
2023-03-19T21:06:28.197Z,3.20
2023-03-19T21:09:00.359Z,3.10
2023-03-19T21:11:37.059Z,3.30
2023-03-19T21:14:06.241Z,3.20
2023-03-19T21:16:34.673Z,3.50
2023-03-19T21:19:03.096Z,3.27
2023-03-19T21:21:33.310Z,3.50
2023-03-19T21:24:04.460Z,3.30
2023-03-19T21:26:37.364Z,3.20
2023-03-19T21:29:08.204Z,3.63
2023-03-19T21:31:36.933Z,3.37
2023-03-19T21:34:05.766Z,4.10
2023-03-19T21:36:34.131Z,3.97
2023-03-19T21:39:02.541Z,3.97
2023-03-19T21:41:33.276Z,3.60
2023-03-19T21:44:04.495Z,4.13
2023-03-19T21:46:33.791Z,4.10
2023-03-19T21:49:02.723Z,3.80
2023-03-19T21:51:31.153Z,4.10
2023-03-19T21:53:59.641Z,4.47
2023-03-19T21:56:32.906Z,3.67
2023-03-19T21:59:03.845Z,4.00
2023-03-19T22:01:32.228Z,4.60
2023-03-19T22:04:00.688Z,4.40
2023-03-19T22:06:29.079Z,4.30
2023-03-19T22:08:57.569Z,3.83
2023-03-19T22:11:28.063Z,4.03
2023-03-19T22:13:58.395Z,4.23
2023-03-19T22:16:29.012Z,4.00
2023-03-19T22:18:57.687Z,3.70
2023-03-19T22:21:26.596Z,4.40
2023-03-19T22:23:55.172Z,4.00
2023-03-19T22:26:28.410Z,4.30
2023-03-19T22:28:57.486Z,3.70
2023-03-19T22:31:26.105Z,4.07
2023-03-19T22:33:56.331Z,4.80
2023-03-19T22:36:24.729Z,3.77
2023-03-19T22:38:53.139Z,4.37
2023-03-19T22:41:24.698Z,4.10
2023-03-19T22:43:53.116Z,4.27
2023-03-19T22:46:21.689Z,3.57
2023-03-19T22:48:51.121Z,4.37
2023-03-19T22:51:22.688Z,4.20
2023-03-19T22:53:51.838Z,4.30
2023-03-19T22:56:20.790Z,3.90
2023-03-19T22:58:49.925Z,3.37
2023-03-19T23:01:28.883Z,3.50
2023-03-19T23:03:57.404Z,3.93
2023-03-19T23:06:34.355Z,4.07
2023-03-19T23:09:06.078Z,3.70
2023-03-19T23:11:34.455Z,3.70
2023-03-19T23:14:03.626Z,3.63
2023-03-19T23:16:32.218Z,4.00
2023-03-19T23:19:01.129Z,4.20
2023-03-19T23:21:30.012Z,3.70
2023-03-19T23:24:00.109Z,3.93
2023-03-19T23:26:29.514Z,3.90
2023-03-19T23:29:00.744Z,4.13
2023-03-19T23:31:29.358Z,3.43
2023-03-19T23:33:57.791Z,3.70
2023-03-19T23:36:26.826Z,4.17
2023-03-19T23:38:56.463Z,3.93
2023-03-19T23:41:30.005Z,4.07
2023-03-19T23:44:01.536Z,3.93
2023-03-19T23:46:30.106Z,3.80
2023-03-19T23:48:59.039Z,3.97
2023-03-19T23:51:27.722Z,3.60
2023-03-19T23:53:56.086Z,3.80
2023-03-19T23:56:25.812Z,3.30
